sensor_id;sensor_type;location;lat;lon;timestamp;pressure;altitude;pressure_sealevel;temperature;humidity
62617;BME280;62539;51.190;6.808;2024-01-27T00:01:04;103137.59;;;17.16;57.75
62617;BME280;62539;51.190;6.808;2024-01-27T00:03:29;103136.72;;;17.14;57.77
62617;BME280;62539;51.190;6.808;2024-01-27T00:05:55;103139.28;;;17.12;58.16
62617;BME280;62539;51.190;6.808;2024-01-27T00:08:20;103147.16;;;17.11;57.64
62617;BME280;62539;51.190;6.808;2024-01-27T00:10:46;103132.28;;;17.10;58.08
62617;BME280;62539;51.190;6.808;2024-01-27T00:13:11;103132.28;;;17.07;57.73
62617;BME280;62539;51.190;6.808;2024-01-27T00:15:37;103135.75;;;17.06;57.80
62617;BME280;62539;51.190;6.808;2024-01-27T00:18:02;103141.00;;;17.06;58.08
62617;BME280;62539;51.190;6.808;2024-01-27T00:20:27;103141.84;;;17.03;57.90
62617;BME280;62539;51.190;6.808;2024-01-27T00:22:53;103156.69;;;17.04;58.10
62617;BME280;62539;51.190;6.808;2024-01-27T00:25:18;103153.22;;;17.03;57.82
62617;BME280;62539;51.190;6.808;2024-01-27T00:27:43;103156.69;;;16.99;58.01
62617;BME280;62539;51.190;6.808;2024-01-27T00:30:09;103160.16;;;16.98;57.85
62617;BME280;62539;51.190;6.808;2024-01-27T00:32:37;103160.97;;;16.96;58.21
62617;BME280;62539;51.190;6.808;2024-01-27T00:35:02;103158.34;;;16.94;58.12
62617;BME280;62539;51.190;6.808;2024-01-27T00:37:28;103162.69;;;16.94;57.97
62617;BME280;62539;51.190;6.808;2024-01-27T00:39:53;103163.56;;;16.94;58.22
62617;BME280;62539;51.190;6.808;2024-01-27T00:42:18;103169.69;;;16.93;58.19
62617;BME280;62539;51.190;6.808;2024-01-27T00:44:49;103167.03;;;16.90;58.46
62617;BME280;62539;51.190;6.808;2024-01-27T00:47:14;103165.28;;;16.89;58.13
62617;BME280;62539;51.190;6.808;2024-01-27T00:49:39;103160.84;;;16.86;58.28
62617;BME280;62539;51.190;6.808;2024-01-27T00:52:05;103166.97;;;16.84;58.15
62617;BME280;62539;51.190;6.808;2024-01-27T00:54:30;103170.44;;;16.83;58.28
62617;BME280;62539;51.190;6.808;2024-01-27T00:56:55;103170.44;;;16.83;58.51
62617;BME280;62539;51.190;6.808;2024-01-27T00:59:21;103176.56;;;16.82;58.34
62617;BME280;62539;51.190;6.808;2024-01-27T01:01:46;103168.66;;;16.79;58.53
62617;BME280;62539;51.190;6.808;2024-01-27T01:04:11;103170.41;;;16.80;58.28
62617;BME280;62539;51.190;6.808;2024-01-27T01:06:39;103170.38;;;16.77;58.48
62617;BME280;62539;51.190;6.808;2024-01-27T01:09:04;103182.59;;;16.74;58.29
62617;BME280;62539;51.190;6.808;2024-01-27T01:11:31;103179.06;;;16.72;58.59
62617;BME280;62539;51.190;6.808;2024-01-27T01:13:56;103188.69;;;16.73;58.34
62617;BME280;62539;51.190;6.808;2024-01-27T01:16:21;103181.66;;;16.71;58.58
62617;BME280;62539;51.190;6.808;2024-01-27T01:18:47;103174.66;;;16.70;58.58
62617;BME280;62539;51.190;6.808;2024-01-27T01:21:12;103167.66;;;16.69;58.68
62617;BME280;62539;51.190;6.808;2024-01-27T01:23:37;103170.28;;;16.67;58.61
62617;BME280;62539;51.190;6.808;2024-01-27T01:26:03;103179.00;;;16.66;58.66
62617;BME280;62539;51.190;6.808;2024-01-27T01:28:28;103175.47;;;16.64;58.62
62617;BME280;62539;51.190;6.808;2024-01-27T01:30:54;103175.44;;;16.63;58.69
62617;BME280;62539;51.190;6.808;2024-01-27T01:33:19;103167.56;;;16.61;58.47
62617;BME280;62539;51.190;6.808;2024-01-27T01:35:45;103176.25;;;16.58;58.60
62617;BME280;62539;51.190;6.808;2024-01-27T01:38:10;103173.66;;;16.57;58.77
62617;BME280;62539;51.190;6.808;2024-01-27T01:40:36;103177.13;;;16.56;58.82
62617;BME280;62539;51.190;6.808;2024-01-27T01:43:01;103167.47;;;16.53;59.01
62617;BME280;62539;51.190;6.808;2024-01-27T01:45:29;103175.31;;;16.52;58.63
62617;BME280;62539;51.190;6.808;2024-01-27T01:47:54;103174.44;;;16.50;58.95
62617;BME280;62539;51.190;6.808;2024-01-27T01:50:20;103180.53;;;16.49;59.07
62617;BME280;62539;51.190;6.808;2024-01-27T01:52:48;103184.00;;;16.48;59.10
62617;BME280;62539;51.190;6.808;2024-01-27T01:55:14;103183.09;;;16.45;58.88
62617;BME280;62539;51.190;6.808;2024-01-27T01:57:42;103184.88;;;16.46;58.93
62617;BME280;62539;51.190;6.808;2024-01-27T02:00:08;103192.69;;;16.43;58.90
62617;BME280;62539;51.190;6.808;2024-01-27T02:02:34;103194.41;;;16.41;58.96
62617;BME280;62539;51.190;6.808;2024-01-27T02:04:59;103190.91;;;16.41;59.02
62617;BME280;62539;51.190;6.808;2024-01-27T02:07:24;103195.22;;;16.39;58.95
62617;BME280;62539;51.190;6.808;2024-01-27T02:09:50;103190.84;;;16.38;59.12
62617;BME280;62539;51.190;6.808;2024-01-27T02:12:15;103187.34;;;16.36;59.13
62617;BME280;62539;51.190;6.808;2024-01-27T02:14:40;103188.22;;;16.36;59.22
62617;BME280;62539;51.190;6.808;2024-01-27T02:17:06;103188.19;;;16.35;59.12
62617;BME280;62539;51.190;6.808;2024-01-27T02:19:31;103189.03;;;16.32;58.95
62617;BME280;62539;51.190;6.808;2024-01-27T02:21:56;103191.63;;;16.30;58.98
62617;BME280;62539;51.190;6.808;2024-01-27T02:24:22;103196.88;;;16.29;59.10
62617;BME280;62539;51.190;6.808;2024-01-27T02:26:47;103196.81;;;16.26;59.31
62617;BME280;62539;51.190;6.808;2024-01-27T02:29:12;103194.19;;;16.26;58.89
62617;BME280;62539;51.190;6.808;2024-01-27T02:31:37;103194.16;;;16.24;59.02
62617;BME280;62539;51.190;6.808;2024-01-27T02:34:03;103188.91;;;16.23;59.30
62617;BME280;62539;51.190;6.808;2024-01-27T02:36:28;103187.13;;;16.20;59.23
62617;BME280;62539;51.190;6.808;2024-01-27T02:38:53;103185.41;;;16.21;59.29
62617;BME280;62539;51.190;6.808;2024-01-27T02:41:19;103192.34;;;16.19;59.09
62617;BME280;62539;51.190;6.808;2024-01-27T02:43:44;103193.22;;;16.17;59.15
62617;BME280;62539;51.190;6.808;2024-01-27T02:46:12;103194.94;;;16.17;59.32
62617;BME280;62539;51.190;6.808;2024-01-27T02:48:44;103190.56;;;16.16;59.39
62617;BME280;62539;51.190;6.808;2024-01-27T02:51:10;103193.16;;;16.14;59.28
62617;BME280;62539;51.190;6.808;2024-01-27T02:53:35;103197.50;;;16.12;59.33
62617;BME280;62539;51.190;6.808;2024-01-27T02:56:01;103186.13;;;16.12;59.38
62617;BME280;62539;51.190;6.808;2024-01-27T02:58:26;103185.28;;;16.11;59.35
62617;BME280;62539;51.190;6.808;2024-01-27T03:00:52;103188.75;;;16.10;59.23
62617;BME280;62539;51.190;6.808;2024-01-27T03:03:17;103192.22;;;16.09;59.29
62617;BME280;62539;51.190;6.808;2024-01-27T03:05:43;103191.31;;;16.07;59.58
62617;BME280;62539;51.190;6.808;2024-01-27T03:08:08;103188.69;;;16.07;59.35
62617;BME280;62539;51.190;6.808;2024-01-27T03:10:33;103197.41;;;16.06;59.31
62617;BME280;62539;51.190;6.808;2024-01-27T03:12:59;103199.13;;;16.04;59.29
62617;BME280;62539;51.190;6.808;2024-01-27T03:15:24;103187.75;;;16.04;59.25
62617;BME280;62539;51.190;6.808;2024-01-27T03:17:49;103193.00;;;16.02;59.46
62617;BME280;62539;51.190;6.808;2024-01-27T03:20:15;103193.00;;;16.02;59.25
62617;BME280;62539;51.190;6.808;2024-01-27T03:22:40;103196.47;;;16.01;59.44
62617;BME280;62539;51.190;6.808;2024-01-27T03:25:07;103197.28;;;15.97;59.40
62617;BME280;62539;51.190;6.808;2024-01-27T03:27:33;103195.47;;;15.94;59.59
62617;BME280;62539;51.190;6.808;2024-01-27T03:30:00;103203.38;;;15.96;59.64
62617;BME280;62539;51.190;6.808;2024-01-27T03:32:26;103219.03;;;15.93;59.57
62617;BME280;62539;51.190;6.808;2024-01-27T03:34:52;103215.50;;;15.92;59.55
62617;BME280;62539;51.190;6.808;2024-01-27T03:37:17;103212.88;;;15.91;59.74
62617;BME280;62539;51.190;6.808;2024-01-27T03:39:42;103215.50;;;15.91;59.53
62617;BME280;62539;51.190;6.808;2024-01-27T03:42:08;103221.59;;;15.90;59.42
62617;BME280;62539;51.190;6.808;2024-01-27T03:44:33;103218.06;;;15.87;59.63
62617;BME280;62539;51.190;6.808;2024-01-27T03:46:58;103217.22;;;15.87;59.64
62617;BME280;62539;51.190;6.808;2024-01-27T03:49:24;103215.38;;;15.84;59.65
62617;BME280;62539;51.190;6.808;2024-01-27T03:51:49;103220.59;;;15.83;59.62
62617;BME280;62539;51.190;6.808;2024-01-27T03:54:14;103209.22;;;15.82;59.55
62617;BME280;62539;51.190;6.808;2024-01-27T03:56:41;103212.72;;;15.81;59.67
62617;BME280;62539;51.190;6.808;2024-01-27T03:59:06;103220.56;;;15.80;59.73
62617;BME280;62539;51.190;6.808;2024-01-27T04:01:34;103205.66;;;15.77;59.66
62617;BME280;62539;51.190;6.808;2024-01-27T04:03:59;103217.88;;;15.78;59.58
62617;BME280;62539;51.190;6.808;2024-01-27T04:06:25;103216.13;;;15.77;59.52
62617;BME280;62539;51.190;6.808;2024-01-27T04:08:50;103219.59;;;15.76;59.59
62617;BME280;62539;51.190;6.808;2024-01-27T04:11:22;103225.69;;;15.75;60.01
62617;BME280;62539;51.190;6.808;2024-01-27T04:13:48;103221.31;;;15.74;59.90
62617;BME280;62539;51.190;6.808;2024-01-27T04:16:14;103238.72;;;15.72;59.81
62617;BME280;62539;51.190;6.808;2024-01-27T04:18:39;103242.19;;;15.71;59.69
62617;BME280;62539;51.190;6.808;2024-01-27T04:21:05;103241.34;;;15.70;59.70
62617;BME280;62539;51.190;6.808;2024-01-27T04:23:30;103244.81;;;15.69;59.79
62617;BME280;62539;51.190;6.808;2024-01-27T04:25:55;103247.38;;;15.68;59.91
62617;BME280;62539;51.190;6.808;2024-01-27T04:28:21;103234.28;;;15.66;59.69
62617;BME280;62539;51.190;6.808;2024-01-27T04:30:46;103240.38;;;15.67;60.04
62617;BME280;62539;51.190;6.808;2024-01-27T04:33:12;103242.09;;;15.65;59.80
62617;BME280;62539;51.190;6.808;2024-01-27T04:35:37;103240.34;;;15.64;59.76
62617;BME280;62539;51.190;6.808;2024-01-27T04:38:03;103234.22;;;15.63;59.64
62617;BME280;62539;51.190;6.808;2024-01-27T04:40:28;103233.34;;;15.63;59.82
62617;BME280;62539;51.190;6.808;2024-01-27T04:42:53;103238.56;;;15.61;59.65
62617;BME280;62539;51.190;6.808;2024-01-27T04:45:19;103248.97;;;15.60;59.65
62617;BME280;62539;51.190;6.808;2024-01-27T04:47:44;103242.00;;;15.58;59.69
62617;BME280;62539;51.190;6.808;2024-01-27T04:50:09;103240.22;;;15.57;59.93
62617;BME280;62539;51.190;6.808;2024-01-27T04:52:35;103247.16;;;15.55;59.92
62617;BME280;62539;51.190;6.808;2024-01-27T04:55:01;103248.06;;;15.56;59.72
62617;BME280;62539;51.190;6.808;2024-01-27T04:57:26;103238.41;;;15.53;59.76
62617;BME280;62539;51.190;6.808;2024-01-27T04:59:51;103238.41;;;15.53;59.72
62617;BME280;62539;51.190;6.808;2024-01-27T05:02:18;103247.13;;;15.52;59.89
62617;BME280;62539;51.190;6.808;2024-01-27T05:04:43;103234.88;;;15.51;59.66
62617;BME280;62539;51.190;6.808;2024-01-27T05:07:08;103219.25;;;15.54;58.71
62617;BME280;62539;51.190;6.808;2024-01-27T05:09:34;103233.38;;;15.66;58.34
62617;BME280;62539;51.190;6.808;2024-01-27T05:12:00;103231.88;;;15.80;57.88
62617;BME280;62539;51.190;6.808;2024-01-27T05:14:26;103228.69;;;15.97;57.58
62617;BME280;62539;51.190;6.808;2024-01-27T05:16:51;103238.53;;;16.13;57.07
62617;BME280;62539;51.190;6.808;2024-01-27T05:19:16;103234.38;;;16.28;56.10
62617;BME280;62539;51.190;6.808;2024-01-27T05:21:43;103235.44;;;16.41;56.12
62617;BME280;62539;51.190;6.808;2024-01-27T05:24:08;103235.59;;;16.52;55.83
62617;BME280;62539;51.190;6.808;2024-01-27T05:26:33;103235.69;;;16.59;55.83
62617;BME280;62539;51.190;6.808;2024-01-27T05:28:59;103229.69;;;16.68;55.57
62617;BME280;62539;51.190;6.808;2024-01-27T05:31:25;103237.63;;;16.76;55.32
62617;BME280;62539;51.190;6.808;2024-01-27T05:33:51;103238.59;;;16.83;54.46
62617;BME280;62539;51.190;6.808;2024-01-27T05:36:16;103240.44;;;16.90;55.11
62617;BME280;62539;51.190;6.808;2024-01-27T05:38:42;103241.41;;;16.97;54.27
62617;BME280;62539;51.190;6.808;2024-01-27T05:41:07;103245.88;;;17.04;54.31
62617;BME280;62539;51.190;6.808;2024-01-27T05:43:32;103240.69;;;17.09;54.07
62617;BME280;62539;51.190;6.808;2024-01-27T05:45:58;103248.63;;;17.15;54.17
62617;BME280;62539;51.190;6.808;2024-01-27T05:48:23;103242.56;;;17.21;53.93
62617;BME280;62539;51.190;6.808;2024-01-27T05:50:58;103250.53;;;17.28;53.92
62617;BME280;62539;51.190;6.808;2024-01-27T05:53:24;103243.53;;;17.32;54.00
62617;BME280;62539;51.190;6.808;2024-01-27T05:55:50;103239.22;;;17.37;53.30
62617;BME280;62539;51.190;6.808;2024-01-27T05:58:16;103241.03;;;17.43;53.46
62617;BME280;62539;51.190;6.808;2024-01-27T06:00:44;103247.19;;;17.46;53.78
62617;BME280;62539;51.190;6.808;2024-01-27T06:03:10;103247.25;;;17.53;53.12
62617;BME280;62539;51.190;6.808;2024-01-27T06:05:35;103236.78;;;17.56;53.46
62617;BME280;62539;51.190;6.808;2024-01-27T06:08:00;103244.69;;;17.57;53.22
62617;BME280;62539;51.190;6.808;2024-01-27T06:10:26;103241.19;;;17.58;53.12
62617;BME280;62539;51.190;6.808;2024-01-27T06:12:51;103248.16;;;17.56;52.97
62617;BME280;62539;51.190;6.808;2024-01-27T06:15:16;103249.91;;;17.56;53.20
62617;BME280;62539;51.190;6.808;2024-01-27T06:17:42;103250.72;;;17.50;53.04
62617;BME280;62539;51.190;6.808;2024-01-27T06:20:07;103255.13;;;17.51;53.24
62617;BME280;62539;51.190;6.808;2024-01-27T06:22:33;103239.38;;;17.51;53.24
62617;BME280;62539;51.190;6.808;2024-01-27T06:24:58;103247.25;;;17.53;53.10
62617;BME280;62539;51.190;6.808;2024-01-27T06:27:24;103249.94;;;17.57;52.89
62617;BME280;62539;51.190;6.808;2024-01-27T06:29:49;103241.22;;;17.61;53.08
62617;BME280;62539;51.190;6.808;2024-01-27T06:32:14;103249.97;;;17.63;53.22
62617;BME280;62539;51.190;6.808;2024-01-27T06:34:41;103257.00;;;17.68;52.99
62617;BME280;62539;51.190;6.808;2024-01-27T06:37:06;103253.56;;;17.72;52.94
62617;BME280;62539;51.190;6.808;2024-01-27T06:39:31;103257.94;;;17.74;52.92
62617;BME280;62539;51.190;6.808;2024-01-27T06:41:57;103256.19;;;17.76;52.69
62617;BME280;62539;51.190;6.808;2024-01-27T06:44:22;103262.38;;;17.80;52.75
62617;BME280;62539;51.190;6.808;2024-01-27T06:46:47;103253.63;;;17.81;52.84
62617;BME280;62539;51.190;6.808;2024-01-27T06:49:17;103258.91;;;17.84;52.44
62617;BME280;62539;51.190;6.808;2024-01-27T06:51:43;103259.78;;;17.88;52.74
62617;BME280;62539;51.190;6.808;2024-01-27T06:54:09;103265.06;;;17.89;52.79
62617;BME280;62539;51.190;6.808;2024-01-27T06:56:34;103270.34;;;17.92;52.95
62617;BME280;62539;51.190;6.808;2024-01-27T06:59:00;103273.00;;;17.96;52.56
62617;BME280;62539;51.190;6.808;2024-01-27T07:01:25;103281.78;;;17.99;53.04
62617;BME280;62539;51.190;6.808;2024-01-27T07:03:50;103279.22;;;18.01;52.86
62617;BME280;62539;51.190;6.808;2024-01-27T07:06:15;103276.59;;;18.04;52.87
62617;BME280;62539;51.190;6.808;2024-01-27T07:08:41;103280.13;;;18.06;52.75
62617;BME280;62539;51.190;6.808;2024-01-27T07:11:06;103278.34;;;18.06;52.70
62617;BME280;62539;51.190;6.808;2024-01-27T07:13:32;103285.38;;;18.06;53.50
62617;BME280;62539;51.190;6.808;2024-01-27T07:15:58;103282.75;;;18.06;52.81
62617;BME280;62539;51.190;6.808;2024-01-27T07:18:24;103287.13;;;18.04;51.34
62617;BME280;62539;51.190;6.808;2024-01-27T07:20:49;103284.41;;;17.99;49.77
62617;BME280;62539;51.190;6.808;2024-01-27T07:23:14;103287.03;;;17.98;49.03
62617;BME280;62539;51.190;6.808;2024-01-27T07:25:40;103287.03;;;17.98;49.31
62617;BME280;62539;51.190;6.808;2024-01-27T07:28:05;103287.03;;;17.98;48.97
62617;BME280;62539;51.190;6.808;2024-01-27T07:30:30;103291.41;;;17.99;49.30
62617;BME280;62539;51.190;6.808;2024-01-27T07:32:56;103292.34;;;18.01;49.40
62617;BME280;62539;51.190;6.808;2024-01-27T07:35:21;103297.63;;;18.04;49.53
62617;BME280;62539;51.190;6.808;2024-01-27T07:37:47;103295.88;;;18.06;49.40
62617;BME280;62539;51.190;6.808;2024-01-27T07:40:12;103288.03;;;18.11;50.00
62617;BME280;62539;51.190;6.808;2024-01-27T07:42:37;103290.69;;;18.15;50.16
62617;BME280;62539;51.190;6.808;2024-01-27T07:45:03;103292.47;;;18.16;49.94
62617;BME280;62539;51.190;6.808;2024-01-27T07:47:28;103299.47;;;18.17;49.70
62617;BME280;62539;51.190;6.808;2024-01-27T07:49:53;103311.72;;;18.17;49.99
62617;BME280;62539;51.190;6.808;2024-01-27T07:52:19;103314.34;;;18.15;49.62
62617;BME280;62539;51.190;6.808;2024-01-27T07:54:45;103313.44;;;18.13;50.04
62617;BME280;62539;51.190;6.808;2024-01-27T07:57:10;103330.94;;;18.13;49.91
62617;BME280;62539;51.190;6.808;2024-01-27T07:59:37;103329.19;;;18.10;49.92
62617;BME280;62539;51.190;6.808;2024-01-27T08:02:02;103321.22;;;18.02;50.29
62617;BME280;62539;51.190;6.808;2024-01-27T08:04:27;103328.22;;;18.00;50.61
62617;BME280;62539;51.190;6.808;2024-01-27T08:06:53;103332.59;;;18.00;50.67
62617;BME280;62539;51.190;6.808;2024-01-27T08:09:18;103329.91;;;17.98;50.77
62617;BME280;62539;51.190;6.808;2024-01-27T08:11:44;103341.31;;;17.99;50.99
62617;BME280;62539;51.190;6.808;2024-01-27T08:14:10;103333.47;;;18.00;50.96
62617;BME280;62539;51.190;6.808;2024-01-27T08:16:35;103334.38;;;18.04;50.68
62617;BME280;62539;51.190;6.808;2024-01-27T08:19:00;103336.19;;;18.08;51.08
62617;BME280;62539;51.190;6.808;2024-01-27T08:21:26;103344.09;;;18.16;50.38
62617;BME280;62539;51.190;6.808;2024-01-27T08:23:51;103345.06;;;18.23;50.75
62617;BME280;62539;51.190;6.808;2024-01-27T08:26:16;103339.84;;;18.29;50.46
62617;BME280;62539;51.190;6.808;2024-01-27T08:28:43;103355.63;;;18.32;50.80
62617;BME280;62539;51.190;6.808;2024-01-27T08:31:09;103345.16;;;18.35;50.45
62617;BME280;62539;51.190;6.808;2024-01-27T08:33:35;103350.41;;;18.35;50.00
62617;BME280;62539;51.190;6.808;2024-01-27T08:36:00;103352.19;;;18.39;50.40
62617;BME280;62539;51.190;6.808;2024-01-27T08:38:26;103345.19;;;18.43;50.59
62617;BME280;62539;51.190;6.808;2024-01-27T08:40:51;103347.00;;;18.48;50.32
62617;BME280;62539;51.190;6.808;2024-01-27T08:43:16;103343.50;;;18.56;50.38
62617;BME280;62539;51.190;6.808;2024-01-27T08:45:42;103348.81;;;18.62;50.39
62617;BME280;62539;51.190;6.808;2024-01-27T08:48:07;103337.44;;;18.69;50.25
62617;BME280;62539;51.190;6.808;2024-01-27T08:50:33;103333.97;;;18.76;50.10
62617;BME280;62539;51.190;6.808;2024-01-27T08:52:58;103334.03;;;18.84;50.21
62617;BME280;62539;51.190;6.808;2024-01-27T08:55:23;103333.19;;;18.91;49.92
62617;BME280;62539;51.190;6.808;2024-01-27T08:57:50;103340.28;;;19.00;50.14
62617;BME280;62539;51.190;6.808;2024-01-27T09:00:16;103340.31;;;19.09;49.96
62617;BME280;62539;51.190;6.808;2024-01-27T09:02:44;103329.81;;;19.19;49.93
62617;BME280;62539;51.190;6.808;2024-01-27T09:05:10;103330.72;;;19.27;49.74
62617;BME280;62539;51.190;6.808;2024-01-27T09:07:35;103340.41;;;19.34;49.04
62617;BME280;62539;51.190;6.808;2024-01-27T09:10:01;103338.66;;;19.39;49.40
62617;BME280;62539;51.190;6.808;2024-01-27T09:12:26;103343.06;;;19.47;49.34
62617;BME280;62539;51.190;6.808;2024-01-27T09:14:52;103342.22;;;19.54;49.05
62617;BME280;62539;51.190;6.808;2024-01-27T09:17:19;103336.97;;;19.63;49.12
62617;BME280;62539;51.190;6.808;2024-01-27T09:19:44;103342.25;;;19.73;49.10
62617;BME280;62539;51.190;6.808;2024-01-27T09:22:09;103342.28;;;19.83;48.92
62617;BME280;62539;51.190;6.808;2024-01-27T09:24:35;103330.88;;;19.95;48.61
62617;BME280;62539;51.190;6.808;2024-01-27T09:27:00;103336.16;;;20.05;48.01
62617;BME280;62539;51.190;6.808;2024-01-27T09:29:27;103337.03;;;20.13;48.42
62617;BME280;62539;51.190;6.808;2024-01-27T09:31:52;103340.53;;;20.21;48.12
62617;BME280;62539;51.190;6.808;2024-01-27T09:34:17;103333.50;;;20.30;47.83
62617;BME280;62539;51.190;6.808;2024-01-27T09:36:43;103329.09;;;20.38;47.83
62617;BME280;62539;51.190;6.808;2024-01-27T09:39:08;103329.97;;;20.48;47.74
62617;BME280;62539;51.190;6.808;2024-01-27T09:41:34;103334.31;;;20.60;47.56
62617;BME280;62539;51.190;6.808;2024-01-27T09:44:01;103334.31;;;20.70;47.10
62617;BME280;62539;51.190;6.808;2024-01-27T09:46:29;103336.06;;;20.79;46.86
62617;BME280;62539;51.190;6.808;2024-01-27T09:48:54;103333.41;;;20.85;46.77
62617;BME280;62539;51.190;6.808;2024-01-27T09:51:20;103324.56;;;20.93;46.60
62617;BME280;62539;51.190;6.808;2024-01-27T09:53:45;103318.41;;;20.94;46.67
62617;BME280;62539;51.190;6.808;2024-01-27T09:56:12;103326.31;;;20.97;46.89
62617;BME280;62539;51.190;6.808;2024-01-27T09:58:43;103326.34;;;20.94;46.57
62617;BME280;62539;51.190;6.808;2024-01-27T10:01:10;103328.09;;;20.92;46.46
62617;BME280;62539;51.190;6.808;2024-01-27T10:03:40;103327.19;;;20.96;46.51
62617;BME280;62539;51.190;6.808;2024-01-27T10:06:09;103333.38;;;20.99;46.54
62617;BME280;62539;51.190;6.808;2024-01-27T10:08:34;103345.66;;;21.02;46.68
62617;BME280;62539;51.190;6.808;2024-01-27T10:11:07;103336.00;;;21.03;46.45
62617;BME280;62539;51.190;6.808;2024-01-27T10:13:32;103339.47;;;21.09;46.27
62617;BME280;62539;51.190;6.808;2024-01-27T10:16:05;103345.59;;;21.16;46.07
62617;BME280;62539;51.190;6.808;2024-01-27T10:18:31;103350.84;;;21.24;46.54
62617;BME280;62539;51.190;6.808;2024-01-27T10:20:57;103356.06;;;21.33;46.07
62617;BME280;62539;51.190;6.808;2024-01-27T10:23:22;103354.25;;;21.43;46.18
62617;BME280;62539;51.190;6.808;2024-01-27T10:25:51;103365.63;;;21.53;45.66
62617;BME280;62539;51.190;6.808;2024-01-27T10:28:16;103368.22;;;21.62;45.73
62617;BME280;62539;51.190;6.808;2024-01-27T10:30:43;103362.03;;;21.72;45.51
62617;BME280;62539;51.190;6.808;2024-01-27T10:33:09;103362.81;;;21.84;44.90
62617;BME280;62539;51.190;6.808;2024-01-27T10:35:44;103366.25;;;21.95;44.75
62617;BME280;62539;51.190;6.808;2024-01-27T10:38:09;103347.69;;;22.03;44.87
62617;BME280;62539;51.190;6.808;2024-01-27T10:40:35;103353.81;;;22.08;44.60
62617;BME280;62539;51.190;6.808;2024-01-27T10:43:03;103349.34;;;22.18;44.24
62617;BME280;62539;51.190;6.808;2024-01-27T10:45:39;103354.50;;;22.30;43.99
62617;BME280;62539;51.190;6.808;2024-01-27T10:48:06;103357.06;;;22.40;43.63
62617;BME280;62539;51.190;6.808;2024-01-27T10:50:38;103349.06;;;22.49;43.74
62617;BME280;62539;51.190;6.808;2024-01-27T10:53:19;103348.03;;;22.63;43.55
62617;BME280;62539;51.190;6.808;2024-01-27T10:55:46;103353.19;;;22.75;43.28
62617;BME280;62539;51.190;6.808;2024-01-27T10:58:13;103349.47;;;22.92;42.82
62617;BME280;62539;51.190;6.808;2024-01-27T11:00:41;103356.28;;;23.11;41.92
62617;BME280;62539;51.190;6.808;2024-01-27T11:03:09;103354.28;;;23.32;41.64
62617;BME280;62539;51.190;6.808;2024-01-27T11:05:36;103364.75;;;23.41;41.65
62617;BME280;62539;51.190;6.808;2024-01-27T11:08:04;103358.38;;;23.55;41.52
62617;BME280;62539;51.190;6.808;2024-01-27T11:10:31;103347.97;;;23.97;41.24
62617;BME280;62539;51.190;6.808;2024-01-27T11:13:02;103355.69;;;24.61;39.81
62617;BME280;62539;51.190;6.808;2024-01-27T11:15:28;103348.38;;;25.58;37.99
62617;BME280;62539;51.190;6.808;2024-01-27T11:17:57;103349.19;;;26.32;36.63
62617;BME280;62539;51.190;6.808;2024-01-27T11:20:23;103362.16;;;26.45;36.47
62617;BME280;62539;51.190;6.808;2024-01-27T11:22:49;103359.56;;;26.73;36.15
62617;BME280;62539;51.190;6.808;2024-01-27T11:25:16;103353.97;;;26.84;35.53
62617;BME280;62539;51.190;6.808;2024-01-27T11:27:43;103359.75;;;26.98;35.19
62617;BME280;62539;51.190;6.808;2024-01-27T11:32:54;103356.09;;;27.03;35.52
62617;BME280;62539;51.190;6.808;2024-01-27T11:35:19;103352.97;;;27.18;35.12
62617;BME280;62539;51.190;6.808;2024-01-27T11:37:44;103351.75;;;27.28;34.89
62617;BME280;62539;51.190;6.808;2024-01-27T11:40:10;103346.84;;;27.43;34.76
62617;BME280;62539;51.190;6.808;2024-01-27T11:42:36;103356.56;;;27.74;34.31
62617;BME280;62539;51.190;6.808;2024-01-27T11:45:01;103356.03;;;27.90;34.04
62617;BME280;62539;51.190;6.808;2024-01-27T11:47:27;103364.09;;;28.15;33.66
62617;BME280;62539;51.190;6.808;2024-01-27T11:49:54;103359.69;;;28.39;33.36
62617;BME280;62539;51.190;6.808;2024-01-27T11:52:20;103361.44;;;28.64;33.15
62617;BME280;62539;51.190;6.808;2024-01-27T11:54:59;103357.56;;;28.97;32.49
62617;BME280;62539;51.190;6.808;2024-01-27T11:57:25;103361.16;;;29.19;32.07
62617;BME280;62539;51.190;6.808;2024-01-27T11:59:52;103357.25;;;29.51;31.74
62617;BME280;62539;51.190;6.808;2024-01-27T12:02:17;103351.06;;;29.71;31.22
62617;BME280;62539;51.190;6.808;2024-01-27T12:04:43;103351.22;;;29.88;31.03
62617;BME280;62539;51.190;6.808;2024-01-27T12:07:09;103352.72;;;30.16;30.83
62617;BME280;62539;51.190;6.808;2024-01-27T12:09:36;103344.81;;;30.34;30.44
62617;BME280;62539;51.190;6.808;2024-01-27T12:12:02;103353.91;;;30.50;30.28
62617;BME280;62539;51.190;6.808;2024-01-27T12:14:40;103339.66;;;30.50;29.74
62617;BME280;62539;51.190;6.808;2024-01-27T12:17:09;103354.03;;;30.68;29.76
62617;BME280;62539;51.190;6.808;2024-01-27T12:19:35;103345.63;;;30.76;29.81
62617;BME280;62539;51.190;6.808;2024-01-27T12:22:01;103333.75;;;30.82;29.70
62617;BME280;62539;51.190;6.808;2024-01-27T12:24:26;103339.41;;;30.94;29.40
62617;BME280;62539;51.190;6.808;2024-01-27T12:26:52;103333.59;;;31.04;29.65
62617;BME280;62539;51.190;6.808;2024-01-27T12:29:20;103331.47;;;31.11;29.47
62617;BME280;62539;51.190;6.808;2024-01-27T12:31:46;103333.28;;;31.29;28.83
62617;BME280;62539;51.190;6.808;2024-01-27T12:34:11;103331.09;;;31.37;28.83
62617;BME280;62539;51.190;6.808;2024-01-27T12:36:43;103326.47;;;31.41;28.63
62617;BME280;62539;51.190;6.808;2024-01-27T12:39:09;103324.16;;;31.51;28.93
62617;BME280;62539;51.190;6.808;2024-01-27T12:41:34;103320.69;;;31.49;28.74
62617;BME280;62539;51.190;6.808;2024-01-27T12:44:00;103322.59;;;31.64;28.42
62617;BME280;62539;51.190;6.808;2024-01-27T12:46:26;103331.94;;;31.75;28.56